Chrisanthi — SX7108 — position and weather

sailwx.info

Track history (hours):
 
Tides and Currents Weather Stations Pressure Air Temp Water Temp Dewpoint Dewpoint Depression Visibility Wind Speed Wind Dir Waves Ship Positions

Chrisanthi

Last reported at 2014-Jul-29 08:27 UTC. Time now 2014-Jul-29 08:43 UTC.
Position N 36°56' E 026°38'.

Length 56 m; draft 3.9 m.

Type: Tanker. MMSI: 237009100.

Date/timePositionNaut miles runAvg speedWind from/ knotsBaromVisibWave heightAir tempDewpointWater temp
2014-Jul-29 08:27N 36°56' E 026°38'1010.7
2014-Jul-29 07:33N 36°49' E 026°30'1110.6
2014-Jul-29 06:33N 36°40' E 026°22'5 0.5
2014-Jul-28 21:16N 36°37' E 026°18'810.4
2014-Jul-28 20:32N 36°40' E 026°09'1110.6
2014-Jul-28 19:32N 36°42' E 025°57'1110.7
2014-Jul-28 18:33N 36°44' E 025°44'1111.0
2014-Jul-28 17:33N 36°47' E 025°31'9 9.2
2014-Jul-28 16:33N 36°53' E 025°22'1010.4
2014-Jul-28 15:33N 37°03' E 025°18'8 7.4
2014-Jul-28 14:33N 37°10' E 025°14'6 6.3
2014-Jul-28 13:33N 37°05' E 025°09'0 0.1
2014-Jul-28 12:33N 37°05' E 025°09'0 0.0
2014-Jul-28 11:33N 37°05' E 025°09'0 0.0
2014-Jul-28 10:32N 37°05' E 025°09'0 0.4
2014-Jul-28 09:33N 37°05' E 025°09'0 0.2
2014-Jul-28 08:33N 37°05' E 025°08'0 0.0
2014-Jul-28 07:32N 37°05' E 025°08'0 0.0
2014-Jul-28 06:31N 37°05' E 025°08'0 0.4
2014-Jul-28 05:31N 37°05' E 025°09'0 0.0
2014-Jul-28 04:33N 37°05' E 025°09'0 0.4
2014-Jul-28 03:33N 37°05' E 025°08'0 0.0
2014-Jul-28 02:31N 37°05' E 025°08'0 0.0
2014-Jul-28 01:32N 37°05' E 025°08'0 0.0
2014-Jul-28 00:32N 37°05' E 025°08'0 0.0
2014-Jul-27 23:32N 37°05' E 025°08'0 0.0
2014-Jul-27 22:31N 37°06' E 025°08'0 0.0
2014-Jul-27 21:28N 37°06' E 025°08'1 1.3
2014-Jul-27 20:24N 37°07' E 025°08'810.0
2014-Jul-27 19:33N 37°10' E 025°18'5 5.4
2014-Jul-27 18:33N 37°06' E 025°22'0 0.1
2014-Jul-27 17:33N 37°06' E 025°22'0 0.1
2014-Jul-27 16:33N 37°06' E 025°22'0 0.1
2014-Jul-27 15:33N 37°06' E 025°22'0 0.4
2014-Jul-27 14:33N 37°06' E 025°22'0 0.0
2014-Jul-27 13:33N 37°06' E 025°22'0 0.2
2014-Jul-27 12:33N 37°06' E 025°22'0 0.1
2014-Jul-27 11:33N 37°06' E 025°22'0 0.3
2014-Jul-27 10:33N 37°06' E 025°22'0 0.0
2014-Jul-27 09:33N 37°06' E 025°22'0 0.1
2014-Jul-27 08:33N 37°06' E 025°22'0 0.4
2014-Jul-27 07:33N 37°06' E 025°22'1 1.2
2014-Jul-27 06:33N 37°07' E 025°21'8 8.5
2014-Jul-27 05:33N 36°58' E 025°22'9 9.2
2014-Jul-27 04:33N 36°55' E 025°32'3 2.9
2014-Jul-27 03:33N 36°56' E 025°36'0 0.0
2014-Jul-27 02:33N 36°56' E 025°36'0 0.0
2014-Jul-27 01:33N 36°56' E 025°36'0 0.0
2014-Jul-27 00:33N 36°56' E 025°36'0 0.0
2014-Jul-26 23:33N 36°56' E 025°36'0 0.0
2014-Jul-26 22:33N 36°56' E 025°36'0 0.0
2014-Jul-26 21:33N 36°56' E 025°36'3 3.4
2014-Jul-26 20:32N 36°55' E 025°32'9 9.1
2014-Jul-26 19:33N 36°51' E 025°22'9 9.0
2014-Jul-26 18:33N 36°45' E 025°14'1010.3
2014-Jul-26 17:33N 36°35' E 025°18'1110.4
2014-Jul-26 16:32N 36°26' E 025°24'3 2.2
2014-Jul-26 15:17N 36°23' E 025°26'0 0.0
2014-Jul-26 14:33N 36°23' E 025°26'0 0.0
2014-Jul-26 13:31N 36°23' E 025°26'0 0.0
2014-Jul-26 12:28N 36°23' E 025°26'0 0.0
2014-Jul-26 11:20N 36°23' E 025°26'0 0.0
2014-Jul-26 10:31N 36°23' E 025°26'5 5.1
2014-Jul-26 09:34N 36°27' E 025°22'1010.3
2014-Jul-26 08:34N 36°37' E 025°17'7 6.8
2014-Jul-26 07:33N 36°43' E 025°16'0 0.0
2014-Jul-26 06:34N 36°43' E 025°16'0 0.0
2014-Jul-26 05:34N 36°43' E 025°16'0 0.0
2014-Jul-26 04:34N 36°43' E 025°16'2 1.7
2014-Jul-26 03:34N 36°42' E 025°16'9 9.0
2014-Jul-26 02:34N 36°39' E 025°27'1010.3
2014-Jul-26 01:33N 36°41' E 025°40'1210.4
2014-Jul-26 00:24N 36°44' E 025°54'53 1.8
2014-Jul-24 19:12N 36°55' E 026°59'710.2
2014-Jul-24 18:33N 36°52' E 026°51'1110.5
2014-Jul-24 17:33N 36°48' E 026°39'1110.6
2014-Jul-24 16:32N 36°45' E 026°26'1110.4
2014-Jul-24 15:30N 36°42' E 026°13'1010.0
2014-Jul-24 14:28N 36°40' E 026°01'910.2
2014-Jul-24 13:33N 36°37' E 025°50'1010.3
2014-Jul-24 12:33N 36°34' E 025°37'1010.2
2014-Jul-24 11:34N 36°31' E 025°25'7 6.8
2014-Jul-24 10:32N 36°25' E 025°25'2 1.5
2014-Jul-24 09:33N 36°23' E 025°26'0 0.0
2014-Jul-24 08:30N 36°23' E 025°26'0 0.0
2014-Jul-24 07:29N 36°23' E 025°26'0 0.0
2014-Jul-24 06:30N 36°23' E 025°26'0 0.0
2014-Jul-24 05:32N 36°23' E 025°26'0 0.0
2014-Jul-24 04:33N 36°23' E 025°26'0 0.0
2014-Jul-24 03:33N 36°23' E 025°26'0 0.1
2014-Jul-24 02:28N 36°23' E 025°26'0 0.0
2014-Jul-24 01:33N 36°23' E 025°26'0 0.0
2014-Jul-24 00:34N 36°23' E 025°26'5 4.6
2014-Jul-23 23:34N 36°27' E 025°22'10 9.9
2014-Jul-23 22:34N 36°36' E 025°17'1010.5
2014-Jul-23 21:34N 36°45' E 025°10'1010.4
2014-Jul-23 20:34N 36°52' E 025°01'1010.2
2014-Jul-23 19:33N 36°59' E 024°52'1010.1
2014-Jul-23 18:33N 37°05' E 024°42'59 9.8
2014-Jul-23 12:34N 37°40' E 023°42'1010.0
2014-Jul-23 11:33N 37°49' E 023°36'26 1.3
2014-Jul-22 15:27N 37°55' E 023°04'17 2.5
2014-Jul-22 08:33N 37°51' E 023°26'1010.5
2014-Jul-22 07:33N 37°49' E 023°39'22 9.9
2014-Jul-22 05:18N 37°35' E 024°02'2010.1
2014-Jul-22 03:18N 37°30' E 024°26'810.5
2014-Jul-22 02:33N 37°25' E 024°34'1111.1
2014-Jul-22 01:33N 37°19' E 024°45'1010.4
2014-Jul-22 00:33N 37°13' E 024°56'1210.1
2014-Jul-21 23:21N 37°05' E 025°08'1 0.8
2014-Jul-21 22:10N 37°05' E 025°09'0 0.0
2014-Jul-21 15:27N 37°05' E 025°09'0 0.0
2014-Jul-21 14:26N 37°05' E 025°09'0 0.0
2014-Jul-21 13:26N 37°05' E 025°09'0 0.0
2014-Jul-21 12:30N 37°05' E 025°09'0 0.0
2014-Jul-21 11:18N 37°05' E 025°09'3 3.4
2014-Jul-21 10:33N 37°05' E 025°06'10 9.8
2014-Jul-21 09:33N 36°59' E 024°56'10 9.5
2014-Jul-21 08:31N 36°51' E 025°03'1110.5
2014-Jul-21 07:26N 36°43' E 025°14'2 2.2
2014-Jul-21 06:34N 36°43' E 025°16'0 0.0
2014-Jul-21 05:33N 36°43' E 025°16'0 0.0
2014-Jul-21 04:26N 36°43' E 025°16'0 0.0
2014-Jul-21 03:33N 36°43' E 025°16'1 0.9
2014-Jul-21 02:31N 36°43' E 025°17'0 0.1
2014-Jul-21 01:33N 36°43' E 025°17'0 0.0
2014-Jul-21 00:33N 36°43' E 025°17'0 0.0
2014-Jul-20 23:32N 36°43' E 025°17'0 0.0
2014-Jul-20 22:34N 36°43' E 025°17'0 0.0
2014-Jul-20 21:34N 36°43' E 025°17'0 0.0
2014-Jul-20 20:34N 36°43' E 025°17'2 2.3
2014-Jul-20 19:33N 36°43' E 025°14'9 9.5
2014-Jul-20 18:33N 36°50' E 025°21'1111.0
2014-Jul-20 17:33N 36°55' E 025°33'2 2.2
2014-Jul-20 16:32N 36°56' E 025°36'0 0.0
2014-Jul-20 15:34N 36°56' E 025°36'0 0.0
2014-Jul-20 14:33N 36°56' E 025°36'9 8.5
2014-Jul-20 13:32N 37°03' E 025°42'5 5.3
2014-Jul-20 12:33N 37°06' E 025°48'0 0.0
2014-Jul-20 11:34N 37°06' E 025°48'0 0.0
2014-Jul-20 10:33N 37°06' E 025°48'17 8.3
2014-Jul-20 08:33N 37°14' E 025°30'9 9.1
2014-Jul-20 07:34N 37°08' E 025°23'2 1.7
2014-Jul-20 06:33N 37°06' E 025°22'1 0.6
2014-Jul-20 05:33N 37°06' E 025°22'0 0.0
2014-Jul-20 04:33N 37°06' E 025°22'0 0.0
2014-Jul-20 03:32N 37°06' E 025°22'0 0.0
2014-Jul-20 02:33N 37°06' E 025°22'0 0.0
2014-Jul-20 01:33N 37°06' E 025°22'0 0.0
2014-Jul-20 00:34N 37°06' E 025°22'0 0.0
2014-Jul-19 23:33N 37°06' E 025°22'0 0.0
2014-Jul-19 22:32N 37°06' E 025°22'0 0.0
2014-Jul-19 21:33N 37°06' E 025°22'6 6.1
2014-Jul-19 20:33N 37°11' E 025°27'10 9.5
2014-Jul-19 19:27N 37°11' E 025°40'9 9.6
2014-Jul-19 18:34N 37°10' E 025°51'11 9.4
2014-Jul-19 17:21N 37°07' E 026°05'8 9.6
2014-Jul-19 16:34N 37°05' E 026°14'  
Track history (hours):
 
Tides and Currents Weather Stations Pressure Air Temp Water Temp Dewpoint Dewpoint Depression Visibility Wind Speed Wind Dir Waves Ship Positions

Chrisanthi

Last reported at 2014-Jul-29 08:27 UTC. Time now 2014-Jul-29 08:43 UTC.
Position N 36°56' E 026°38'.

Length 56 m; draft 3.9 m.

Type: Tanker. MMSI: 237009100.

Date/timePositionNaut miles runAvg speedWind from/ knotsBaromVisibWave heightAir tempDewpointWater temp
2014-Jul-29 08:27N 36°56' E 026°38'1010.7
2014-Jul-29 07:33N 36°49' E 026°30'1110.6
2014-Jul-29 06:33N 36°40' E 026°22'5 0.5
2014-Jul-28 21:16N 36°37' E 026°18'810.4
2014-Jul-28 20:32N 36°40' E 026°09'1110.6
2014-Jul-28 19:32N 36°42' E 025°57'1110.7
2014-Jul-28 18:33N 36°44' E 025°44'1111.0
2014-Jul-28 17:33N 36°47' E 025°31'9 9.2
2014-Jul-28 16:33N 36°53' E 025°22'1010.4
2014-Jul-28 15:33N 37°03' E 025°18'8 7.4
2014-Jul-28 14:33N 37°10' E 025°14'6 6.3
2014-Jul-28 13:33N 37°05' E 025°09'0 0.1
2014-Jul-28 12:33N 37°05' E 025°09'0 0.0
2014-Jul-28 11:33N 37°05' E 025°09'0 0.0
2014-Jul-28 10:32N 37°05' E 025°09'0 0.4
2014-Jul-28 09:33N 37°05' E 025°09'0 0.2
2014-Jul-28 08:33N 37°05' E 025°08'0 0.0
2014-Jul-28 07:32N 37°05' E 025°08'0 0.0
2014-Jul-28 06:31N 37°05' E 025°08'0 0.4
2014-Jul-28 05:31N 37°05' E 025°09'0 0.0
2014-Jul-28 04:33N 37°05' E 025°09'0 0.4
2014-Jul-28 03:33N 37°05' E 025°08'0 0.0
2014-Jul-28 02:31N 37°05' E 025°08'0 0.0
2014-Jul-28 01:32N 37°05' E 025°08'0 0.0
2014-Jul-28 00:32N 37°05' E 025°08'0 0.0
2014-Jul-27 23:32N 37°05' E 025°08'0 0.0
2014-Jul-27 22:31N 37°06' E 025°08'0 0.0
2014-Jul-27 21:28N 37°06' E 025°08'1 1.3
2014-Jul-27 20:24N 37°07' E 025°08'810.0
2014-Jul-27 19:33N 37°10' E 025°18'5 5.4
2014-Jul-27 18:33N 37°06' E 025°22'0 0.1
2014-Jul-27 17:33N 37°06' E 025°22'0 0.1
2014-Jul-27 16:33N 37°06' E 025°22'0 0.1
2014-Jul-27 15:33N 37°06' E 025°22'0 0.4
2014-Jul-27 14:33N 37°06' E 025°22'0 0.0
2014-Jul-27 13:33N 37°06' E 025°22'0 0.2
2014-Jul-27 12:33N 37°06' E 025°22'0 0.1
2014-Jul-27 11:33N 37°06' E 025°22'0 0.3
2014-Jul-27 10:33N 37°06' E 025°22'0 0.0
2014-Jul-27 09:33N 37°06' E 025°22'0 0.1
2014-Jul-27 08:33N 37°06' E 025°22'0 0.4
2014-Jul-27 07:33N 37°06' E 025°22'1 1.2
2014-Jul-27 06:33N 37°07' E 025°21'8 8.5
2014-Jul-27 05:33N 36°58' E 025°22'9 9.2
2014-Jul-27 04:33N 36°55' E 025°32'3 2.9
2014-Jul-27 03:33N 36°56' E 025°36'0 0.0
2014-Jul-27 02:33N 36°56' E 025°36'0 0.0
2014-Jul-27 01:33N 36°56' E 025°36'0 0.0
2014-Jul-27 00:33N 36°56' E 025°36'0 0.0
2014-Jul-26 23:33N 36°56' E 025°36'0 0.0
2014-Jul-26 22:33N 36°56' E 025°36'0 0.0
2014-Jul-26 21:33N 36°56' E 025°36'3 3.4
2014-Jul-26 20:32N 36°55' E 025°32'9 9.1
2014-Jul-26 19:33N 36°51' E 025°22'9 9.0
2014-Jul-26 18:33N 36°45' E 025°14'1010.3
2014-Jul-26 17:33N 36°35' E 025°18'1110.4
2014-Jul-26 16:32N 36°26' E 025°24'3 2.2
2014-Jul-26 15:17N 36°23' E 025°26'0 0.0
2014-Jul-26 14:33N 36°23' E 025°26'0 0.0
2014-Jul-26 13:31N 36°23' E 025°26'0 0.0
2014-Jul-26 12:28N 36°23' E 025°26'0 0.0
2014-Jul-26 11:20N 36°23' E 025°26'0 0.0
2014-Jul-26 10:31N 36°23' E 025°26'5 5.1
2014-Jul-26 09:34N 36°27' E 025°22'1010.3
2014-Jul-26 08:34N 36°37' E 025°17'7 6.8
2014-Jul-26 07:33N 36°43' E 025°16'0 0.0
2014-Jul-26 06:34N 36°43' E 025°16'0 0.0
2014-Jul-26 05:34N 36°43' E 025°16'0 0.0
2014-Jul-26 04:34N 36°43' E 025°16'2 1.7
2014-Jul-26 03:34N 36°42' E 025°16'9 9.0
2014-Jul-26 02:34N 36°39' E 025°27'1010.3
2014-Jul-26 01:33N 36°41' E 025°40'1210.4
2014-Jul-26 00:24N 36°44' E 025°54'53 1.8
2014-Jul-24 19:12N 36°55' E 026°59'710.2
2014-Jul-24 18:33N 36°52' E 026°51'1110.5
2014-Jul-24 17:33N 36°48' E 026°39'1110.6
2014-Jul-24 16:32N 36°45' E 026°26'1110.4
2014-Jul-24 15:30N 36°42' E 026°13'1010.0
2014-Jul-24 14:28N 36°40' E 026°01'910.2
2014-Jul-24 13:33N 36°37' E 025°50'1010.3
2014-Jul-24 12:33N 36°34' E 025°37'1010.2
2014-Jul-24 11:34N 36°31' E 025°25'7 6.8
2014-Jul-24 10:32N 36°25' E 025°25'2 1.5
2014-Jul-24 09:33N 36°23' E 025°26'0 0.0
2014-Jul-24 08:30N 36°23' E 025°26'0 0.0
2014-Jul-24 07:29N 36°23' E 025°26'0 0.0
2014-Jul-24 06:30N 36°23' E 025°26'0 0.0
2014-Jul-24 05:32N 36°23' E 025°26'0 0.0
2014-Jul-24 04:33N 36°23' E 025°26'0 0.0
2014-Jul-24 03:33N 36°23' E 025°26'0 0.1
2014-Jul-24 02:28N 36°23' E 025°26'0 0.0
2014-Jul-24 01:33N 36°23' E 025°26'0 0.0
2014-Jul-24 00:34N 36°23' E 025°26'5 4.6
2014-Jul-23 23:34N 36°27' E 025°22'10 9.9
2014-Jul-23 22:34N 36°36' E 025°17'1010.5
2014-Jul-23 21:34N 36°45' E 025°10'1010.4
2014-Jul-23 20:34N 36°52' E 025°01'1010.2
2014-Jul-23 19:33N 36°59' E 024°52'1010.1
2014-Jul-23 18:33N 37°05' E 024°42'59 9.8
2014-Jul-23 12:34N 37°40' E 023°42'1010.0
2014-Jul-23 11:33N 37°49' E 023°36'26 1.3
2014-Jul-22 15:27N 37°55' E 023°04'17 2.5
2014-Jul-22 08:33N 37°51' E 023°26'1010.5
2014-Jul-22 07:33N 37°49' E 023°39'22 9.9
2014-Jul-22 05:18N 37°35' E 024°02'2010.1
2014-Jul-22 03:18N 37°30' E 024°26'810.5
2014-Jul-22 02:33N 37°25' E 024°34'1111.1
2014-Jul-22 01:33N 37°19' E 024°45'1010.4
2014-Jul-22 00:33N 37°13' E 024°56'1210.1
2014-Jul-21 23:21N 37°05' E 025°08'1 0.8
2014-Jul-21 22:10N 37°05' E 025°09'0 0.0
2014-Jul-21 15:27N 37°05' E 025°09'0 0.0
2014-Jul-21 14:26N 37°05' E 025°09'0 0.0
2014-Jul-21 13:26N 37°05' E 025°09'0 0.0
2014-Jul-21 12:30N 37°05' E 025°09'0 0.0
2014-Jul-21 11:18N 37°05' E 025°09'3 3.4
2014-Jul-21 10:33N 37°05' E 025°06'10 9.8
2014-Jul-21 09:33N 36°59' E 024°56'10 9.5
2014-Jul-21 08:31N 36°51' E 025°03'1110.5
2014-Jul-21 07:26N 36°43' E 025°14'2 2.2
2014-Jul-21 06:34N 36°43' E 025°16'0 0.0
2014-Jul-21 05:33N 36°43' E 025°16'0 0.0
2014-Jul-21 04:26N 36°43' E 025°16'0 0.0
2014-Jul-21 03:33N 36°43' E 025°16'1 0.9
2014-Jul-21 02:31N 36°43' E 025°17'0 0.1
2014-Jul-21 01:33N 36°43' E 025°17'0 0.0
2014-Jul-21 00:33N 36°43' E 025°17'0 0.0
2014-Jul-20 23:32N 36°43' E 025°17'0 0.0
2014-Jul-20 22:34N 36°43' E 025°17'0 0.0
2014-Jul-20 21:34N 36°43' E 025°17'0 0.0
2014-Jul-20 20:34N 36°43' E 025°17'2 2.3
2014-Jul-20 19:33N 36°43' E 025°14'9 9.5
2014-Jul-20 18:33N 36°50' E 025°21'1111.0
2014-Jul-20 17:33N 36°55' E 025°33'2 2.2
2014-Jul-20 16:32N 36°56' E 025°36'0 0.0
2014-Jul-20 15:34N 36°56' E 025°36'0 0.0
2014-Jul-20 14:33N 36°56' E 025°36'9 8.5
2014-Jul-20 13:32N 37°03' E 025°42'5 5.3
2014-Jul-20 12:33N 37°06' E 025°48'0 0.0
2014-Jul-20 11:34N 37°06' E 025°48'0 0.0
2014-Jul-20 10:33N 37°06' E 025°48'17 8.3
2014-Jul-20 08:33N 37°14' E 025°30'9 9.1
2014-Jul-20 07:34N 37°08' E 025°23'2 1.7
2014-Jul-20 06:33N 37°06' E 025°22'1 0.6
2014-Jul-20 05:33N 37°06' E 025°22'0 0.0
2014-Jul-20 04:33N 37°06' E 025°22'0 0.0
2014-Jul-20 03:32N 37°06' E 025°22'0 0.0
2014-Jul-20 02:33N 37°06' E 025°22'0 0.0
2014-Jul-20 01:33N 37°06' E 025°22'0 0.0
2014-Jul-20 00:34N 37°06' E 025°22'0 0.0
2014-Jul-19 23:33N 37°06' E 025°22'0 0.0
2014-Jul-19 22:32N 37°06' E 025°22'0 0.0
2014-Jul-19 21:33N 37°06' E 025°22'6 6.1
2014-Jul-19 20:33N 37°11' E 025°27'10 9.5
2014-Jul-19 19:27N 37°11' E 025°40'9 9.6
2014-Jul-19 18:34N 37°10' E 025°51'11 9.4
2014-Jul-19 17:21N 37°07' E 026°05'8 9.6
2014-Jul-19 16:34N 37°05' E 026°14'  

Dump ship's entire track history